Time;durP1;ratioP1;P1;durP2;ratioP2;P2;SDS_P1;SDS_P2;PMS_P1;PMS_P2;Temp;Humidity;BMP_temperature;BMP_pressure;BME280_temperature;BME280_humidity;BME280_pressure;Samples;Min_cycle;Max_cycle;Signal;HPM_P1;HPM_P2
2022/03/28 00:01:15;;;;;;;4.88;2.30;;;14.70;63.70;;;;;;5031035;28;20029;-78
2022/03/28 00:03:41;;;;;;;5.85;2.50;;;14.70;63.70;;;;;;4998020;28;20030;-78
2022/03/28 00:06:07;;;;;;;6.43;3.22;;;14.60;63.60;;;;;;5008944;28;20026;-78
2022/03/28 00:08:34;;;;;;;4.97;2.28;;;14.60;63.70;;;;;;5006149;28;20502;-79
2022/03/28 00:11:00;;;;;;;5.10;2.60;;;14.60;63.70;;;;;;5014425;28;20178;-79
2022/03/28 00:13:26;;;;;;;4.03;2.20;;;14.50;63.60;;;;;;5009196;28;20034;-79
2022/03/28 00:15:51;;;;;;;5.60;2.35;;;14.50;63.70;;;;;;5009030;28;20034;-79
2022/03/28 00:18:17;;;;;;;6.97;2.47;;;14.50;63.90;;;;;;4996614;28;20045;-78
2022/03/28 00:20:46;;;;;;;5.88;2.65;;;14.50;63.90;;;;;;4973525;28;20092;-79
2022/03/28 00:23:13;;;;;;;5.13;2.33;;;14.40;63.80;;;;;;5002724;28;20382;-78
2022/03/28 00:25:40;;;;;;;4.25;2.03;;;14.40;63.80;;;;;;5014640;28;20529;-79
2022/03/28 00:28:07;;;;;;;5.47;2.65;;;14.40;64.00;;;;;;5012882;28;20033;-77
2022/03/28 00:30:33;;;;;;;4.70;2.17;;;14.30;63.90;;;;;;5014138;28;20033;-78
2022/03/28 00:33:01;;;;;;;5.53;2.10;;;14.30;64.00;;;;;;4996837;28;20067;-78
2022/03/28 00:35:27;;;;;;;6.28;2.58;;;14.30;64.10;;;;;;4997839;28;20500;-78
2022/03/28 00:37:53;;;;;;;5.38;2.50;;;14.20;64.00;;;;;;4996270;28;20033;-78
2022/03/28 00:40:20;;;;;;;4.57;2.47;;;14.20;64.10;;;;;;5026052;28;20402;-78
2022/03/28 00:42:49;;;;;;;4.93;2.17;;;14.20;64.10;;;;;;5001321;28;20445;-79
2022/03/28 00:45:15;;;;;;;5.63;2.10;;;14.20;64.20;;;;;;5004997;28;20053;-78
2022/03/28 00:47:42;;;;;;;4.95;2.38;;;14.10;64.20;;;;;;5028273;28;20014;-78
2022/03/28 00:50:09;;;;;;;4.75;2.00;;;14.10;64.20;;;;;;4993784;28;20052;-79
2022/03/28 00:52:37;;;;;;;5.18;2.30;;;14.10;64.20;;;;;;5000422;28;20034;-78
2022/03/28 00:55:04;;;;;;;5.13;2.20;;;14.00;64.20;;;;;;4986695;28;20050;-79
2022/03/28 00:57:31;;;;;;;4.75;2.30;;;14.00;64.30;;;;;;4995604;28;20045;-78
2022/03/28 00:59:58;;;;;;;3.92;1.98;;;14.00;64.30;;;;;;5009869;28;20073;-79
2022/03/28 01:02:24;;;;;;;3.65;1.98;;;13.90;64.30;;;;;;4995779;28;20107;-78
2022/03/28 01:04:50;;;;;;;4.72;2.50;;;13.90;64.30;;;;;;4994845;28;20136;-78
2022/03/28 01:07:17;;;;;;;4.88;2.10;;;13.90;64.40;;;;;;5019577;28;20486;-80
2022/03/28 01:09:43;;;;;;;5.35;2.25;;;13.80;65.10;;;;;;4992063;28;20128;-79
2022/03/28 01:12:10;;;;;;;6.43;1.95;;;13.80;64.50;;;;;;4979087;28;20033;-78
2022/03/28 01:14:36;;;;;;;4.13;1.90;;;13.80;64.50;;;;;;4996731;28;20458;-77
2022/03/28 01:19:53;;;;;;;6.45;2.80;;;13.70;64.50;;;;;;5014809;28;20045;-79
2022/03/28 01:22:20;;;;;;;3.35;1.83;;;13.70;64.50;;;;;;4993710;28;20048;-79
2022/03/28 01:24:47;;;;;;;4.43;2.28;;;13.60;64.50;;;;;;4996980;28;20116;-79
2022/03/28 01:27:14;;;;;;;3.83;1.88;;;13.60;64.50;;;;;;4994927;28;20037;-79
2022/03/28 01:29:44;;;;;;;4.97;2.22;;;13.60;64.50;;;;;;5009546;28;20037;-79
2022/03/28 01:32:11;;;;;;;6.10;2.45;;;13.60;64.50;;;;;;4995798;28;20033;-78
2022/03/28 01:34:37;;;;;;;4.90;2.10;;;13.50;64.50;;;;;;5007671;28;20040;-79
2022/03/28 01:37:04;;;;;;;4.45;2.05;;;13.50;64.60;;;;;;5009408;28;20114;-78
2022/03/28 01:39:31;;;;;;;5.78;1.98;;;13.50;64.60;;;;;;4990511;28;20037;-78
2022/03/28 01:41:57;;;;;;;4.97;2.17;;;13.50;64.60;;;;;;4987463;28;20022;-81
2022/03/28 01:44:23;;;;;;;5.68;2.35;;;13.40;64.50;;;;;;5011854;28;20555;-78
2022/03/28 01:46:49;;;;;;;4.45;2.05;;;13.40;64.50;;;;;;4993599;28;20033;-79
2022/03/28 01:49:16;;;;;;;5.25;2.20;;;13.40;64.60;;;;;;4995033;28;20374;-78
2022/03/28 01:51:43;;;;;;;4.05;2.00;;;13.40;64.60;;;;;;4981442;28;20124;-78
2022/03/28 01:54:09;;;;;;;4.47;2.20;;;13.30;64.50;;;;;;5017714;28;20050;-78
2022/03/28 01:56:38;;;;;;;5.68;2.50;;;13.30;64.50;;;;;;4993940;28;20060;-78
2022/03/28 01:59:05;;;;;;;5.53;2.28;;;13.30;64.50;;;;;;5009689;28;20025;-79
2022/03/28 02:01:32;;;;;;;4.45;2.00;;;13.30;64.50;;;;;;4996584;28;20117;-78
2022/03/28 02:03:58;;;;;;;5.88;2.30;;;13.20;64.40;;;;;;5008863;28;20032;-78
2022/03/28 02:06:24;;;;;;;4.03;1.95;;;13.20;64.40;;;;;;4984652;28;20029;-78
2022/03/28 02:08:50;;;;;;;5.72;2.38;;;13.20;64.50;;;;;;4994112;28;20025;-79
2022/03/28 02:11:16;;;;;;;5.55;2.25;;;13.10;64.40;;;;;;4996241;28;20034;-78
2022/03/28 02:13:41;;;;;;;4.55;2.08;;;13.10;64.40;;;;;;5024449;28;20348;-79
2022/03/28 02:16:09;;;;;;;5.03;2.10;;;13.10;64.40;;;;;;5008358;28;20080;-80
2022/03/28 02:18:35;;;;;;;4.13;2.22;;;13.10;64.40;;;;;;4993083;28;20034;-79
2022/03/28 02:21:01;;;;;;;3.97;2.08;;;13.00;64.40;;;;;;5008532;28;20385;-81
2022/03/28 02:23:30;;;;;;;6.85;2.22;;;13.00;64.40;;;;;;4995700;28;20032;-79
2022/03/28 02:25:56;;;;;;;3.55;1.80;;;13.00;64.40;;;;;;4993858;28;20567;-79
2022/03/28 02:28:25;;;;;;;4.60;2.10;;;13.00;64.40;;;;;;4991330;28;20022;-79
2022/03/28 02:30:51;;;;;;;4.25;2.10;;;12.90;64.40;;;;;;4985968;28;20478;-79
2022/03/28 02:33:17;;;;;;;5.13;1.95;;;12.90;64.40;;;;;;5005610;28;20032;-80
2022/03/28 02:35:43;;;;;;;5.00;2.20;;;12.90;64.40;;;;;;4994803;28;20401;-78
2022/03/28 02:38:09;;;;;;;3.95;1.73;;;12.90;64.40;;;;;;4994922;28;20029;-78
2022/03/28 02:40:36;;;;;;;4.88;2.00;;;12.80;64.40;;;;;;5003920;28;20030;-78
2022/03/28 02:43:02;;;;;;;3.55;2.08;;;12.80;64.40;;;;;;4995028;28;20033;-78
2022/03/28 02:45:31;;;;;;;4.72;2.13;;;12.80;64.40;;;;;;4995015;28;20033;-78
2022/03/28 02:47:59;;;;;;;4.15;2.22;;;12.80;64.40;;;;;;5010593;28;20052;-77
2022/03/28 02:50:29;;;;;;;5.13;2.33;;;12.70;64.40;;;;;;4993906;28;20037;-77
2022/03/28 02:52:54;;;;;;;5.32;2.20;;;12.70;64.40;;;;;;4996066;28;20036;-77
2022/03/28 02:55:21;;;;;;;3.97;2.10;;;12.70;64.40;;;;;;4962659;28;20050;-79
2022/03/28 02:57:47;;;;;;;4.30;2.05;;;12.70;64.40;;;;;;5008935;28;20061;-79
2022/03/28 03:00:13;;;;;;;4.18;2.00;;;12.60;64.40;;;;;;4988671;28;20050;-79
2022/03/28 03:02:40;;;;;;;5.30;2.10;;;12.60;64.40;;;;;;4991738;28;20030;-79
2022/03/28 03:05:07;;;;;;;7.32;2.20;;;12.60;64.50;;;;;;5002287;28;20493;-79
2022/03/28 03:07:33;;;;;;;5.50;2.22;;;12.50;64.40;;;;;;4991064;28;20132;-78
2022/03/28 03:09:59;;;;;;;4.88;2.20;;;12.50;64.40;;;;;;5011034;28;20509;-78
2022/03/28 03:12:25;;;;;;;5.45;2.35;;;12.50;64.50;;;;;;5024596;28;20026;-79
2022/03/28 03:14:51;;;;;;;4.57;2.20;;;12.50;64.50;;;;;;5004669;28;20474;-78
2022/03/28 03:17:18;;;;;;;4.82;2.13;;;12.50;64.50;;;;;;4977257;28;20046;-79
2022/03/28 03:19:44;;;;;;;5.35;2.55;;;12.40;64.50;;;;;;4994373;28;20044;-80
2022/03/28 03:22:14;;;;;;;6.07;2.00;;;12.40;64.50;;;;;;5003670;28;20035;-80
2022/03/28 03:24:43;;;;;;;5.55;2.45;;;12.40;64.60;;;;;;4994791;28;20184;-79
2022/03/28 03:27:09;;;;;;;6.40;2.33;;;12.30;64.50;;;;;;5004663;28;20527;-79
2022/03/28 03:29:36;;;;;;;4.10;2.20;;;12.30;64.50;;;;;;4995702;28;20116;-80
2022/03/28 03:32:03;;;;;;;5.63;2.20;;;12.30;64.60;;;;;;4993503;28;20489;-79
2022/03/28 03:34:32;;;;;;;5.60;2.30;;;12.30;64.60;;;;;;4995523;28;20068;-81
2022/03/28 03:36:57;;;;;;;5.20;2.20;;;12.30;64.60;;;;;;4995096;28;20041;-79
2022/03/28 03:39:25;;;;;;;5.47;2.50;;;12.20;64.60;;;;;;4982667;28;20031;-79
2022/03/28 03:41:51;;;;;;;5.20;2.22;;;12.20;64.60;;;;;;5011635;28;20029;-79
2022/03/28 03:44:17;;;;;;;4.50;2.50;;;12.20;64.60;;;;;;4977047;28;20037;-79
2022/03/28 03:46:43;;;;;;;5.43;2.60;;;12.20;64.60;;;;;;5001395;28;20071;-79
2022/03/28 03:49:09;;;;;;;4.53;2.70;;;12.20;64.70;;;;;;4998116;28;20371;-79
2022/03/28 03:51:36;;;;;;;5.88;2.58;;;12.10;64.60;;;;;;5032434;28;20040;-79
2022/03/28 03:54:02;;;;;;;6.70;2.70;;;12.10;65.30;;;;;;5010605;28;20068;-77
2022/03/28 03:56:28;;;;;;;6.07;2.50;;;12.10;64.70;;;;;;5014883;28;20250;-79
2022/03/28 03:58:55;;;;;;;5.30;2.58;;;12.10;64.70;;;;;;5003250;28;20445;-77
2022/03/28 04:01:22;;;;;;;4.72;2.30;;;12.00;64.70;;;;;;4994808;28;20028;-77
2022/03/28 04:03:48;;;;;;;4.30;2.10;;;12.00;64.70;;;;;;4991644;28;20034;-77
2022/03/28 04:06:14;;;;;;;5.00;2.60;;;12.00;64.80;;;;;;4997256;28;20084;-78
2022/03/28 04:08:40;;;;;;;5.97;2.67;;;12.00;64.80;;;;;;4998119;28;20036;-77
2022/03/28 04:11:06;;;;;;;4.63;2.60;;;11.90;64.70;;;;;;5002350;28;20060;-77
2022/03/28 04:13:34;;;;;;;5.25;2.60;;;11.90;64.80;;;;;;5032165;28;20017;-77
2022/03/28 04:16:00;;;;;;;5.78;2.63;;;11.90;64.80;;;;;;4982174;28;20120;-77
2022/03/28 04:18:27;;;;;;;4.90;2.85;;;11.90;64.80;;;;;;4996447;28;20037;-77
2022/03/28 04:20:54;;;;;;;5.38;2.20;;;11.80;64.80;;;;;;5008054;28;20488;-78
2022/03/28 04:23:20;;;;;;;7.00;2.50;;;11.80;64.80;;;;;;4997047;28;20681;-78
2022/03/28 04:25:45;;;;;;;5.05;2.72;;;11.80;64.80;;;;;;4997852;28;20478;-77
2022/03/28 04:28:11;;;;;;;4.22;2.30;;;11.80;64.80;;;;;;4978036;28;20029;-78
2022/03/28 04:30:37;;;;;;;6.90;2.80;;;11.70;64.80;;;;;;5012118;28;20052;-78
2022/03/28 04:33:03;;;;;;;5.15;2.47;;;11.70;64.80;;;;;;4999996;28;20029;-78
2022/03/28 04:35:29;;;;;;;6.85;3.00;;;11.70;64.80;;;;;;5028879;28;20112;-78
2022/03/28 04:37:56;;;;;;;4.55;2.60;;;11.70;64.90;;;;;;5006381;28;20125;-78
2022/03/28 04:40:21;;;;;;;5.35;3.25;;;11.60;64.90;;;;;;4994375;28;20030;-81
2022/03/28 04:42:48;;;;;;;4.57;2.65;;;11.60;64.90;;;;;;4997005;28;20036;-78
2022/03/28 04:45:14;;;;;;;4.55;2.40;;;11.60;64.90;;;;;;5024193;28;20075;-77
2022/03/28 04:47:41;;;;;;;5.65;3.00;;;11.60;64.90;;;;;;5012712;28;20036;-78
2022/03/28 04:50:08;;;;;;;4.22;2.58;;;11.50;64.90;;;;;;4996388;28;20024;-76
2022/03/28 04:52:34;;;;;;;5.80;3.30;;;11.50;64.90;;;;;;4995899;28;20025;-78
2022/03/28 04:55:00;;;;;;;4.40;2.65;;;11.50;64.90;;;;;;5005206;28;20048;-76
2022/03/28 04:57:26;;;;;;;4.43;2.72;;;11.50;65.00;;;;;;4984836;28;20395;-78
2022/03/28 04:59:52;;;;;;;4.18;2.63;;;11.40;64.90;;;;;;4978864;28;20044;-77
2022/03/28 05:02:18;;;;;;;4.40;2.50;;;11.40;64.90;;;;;;5001256;28;20120;-78
2022/03/28 05:04:43;;;;;;;4.78;2.55;;;11.40;65.00;;;;;;5011138;28;20041;-78
2022/03/28 05:07:09;;;;;;;5.55;3.25;;;11.40;65.00;;;;;;5011910;28;20044;-77
2022/03/28 05:09:35;;;;;;;4.68;2.58;;;11.40;65.00;;;;;;5029821;28;20072;-78
2022/03/28 05:12:01;;;;;;;3.88;2.63;;;11.30;65.00;;;;;;4992328;28;20355;-78
2022/03/28 05:14:27;;;;;;;5.15;2.65;;;11.30;65.00;;;;;;4967665;28;20034;-78
2022/03/28 05:16:53;;;;;;;6.43;2.95;;;11.30;65.00;;;;;;5010215;28;20096;-78
2022/03/28 05:19:18;;;;;;;5.78;3.25;;;11.30;65.10;;;;;;4995330;28;20056;-78
2022/03/28 05:21:44;;;;;;;5.25;2.65;;;11.20;65.00;;;;;;4992863;28;20367;-77
2022/03/28 05:24:10;;;;;;;5.13;2.70;;;11.20;65.10;;;;;;4977245;28;20034;-77
2022/03/28 05:26:36;;;;;;;6.18;2.97;;;11.20;65.10;;;;;;5007414;28;20033;-77
2022/03/28 05:29:01;;;;;;;4.95;2.67;;;11.20;65.10;;;;;;4995627;28;20029;-76
2022/03/28 05:31:27;;;;;;;6.65;3.10;;;11.20;65.20;;;;;;5011103;28;20098;-77
2022/03/28 05:33:53;;;;;;;6.30;3.08;;;11.10;65.10;;;;;;4995337;28;20056;-77
2022/03/28 05:36:19;;;;;;;4.60;2.72;;;11.10;65.10;;;;;;5011608;28;20041;-77
2022/03/28 05:38:45;;;;;;;5.05;2.75;;;11.10;65.10;;;;;;5011948;28;20531;-77
2022/03/28 05:41:11;;;;;;;5.93;3.30;;;11.10;65.20;;;;;;5013081;28;20032;-76
2022/03/28 05:43:38;;;;;;;4.72;2.67;;;11.00;65.80;;;;;;4996783;28;20085;-78
2022/03/28 05:46:05;;;;;;;4.40;2.85;;;11.00;65.20;;;;;;4996809;28;20160;-77
2022/03/28 05:48:31;;;;;;;5.55;2.58;;;11.00;65.20;;;;;;5020025;28;20025;-76
2022/03/28 05:50:57;;;;;;;4.47;2.95;;;11.00;65.20;;;;;;4993285;28;20478;-77
2022/03/28 05:53:22;;;;;;;4.60;2.58;;;11.00;65.30;;;;;;4996380;28;20030;-78
2022/03/28 05:55:48;;;;;;;4.45;2.90;;;11.00;65.30;;;;;;5011224;28;20058;-77
2022/03/28 05:58:15;;;;;;;5.85;3.10;;;10.90;65.30;;;;;;5011313;28;20036;-77
2022/03/28 06:00:41;;;;;;;4.78;2.80;;;10.90;65.30;;;;;;4993151;28;20339;-78
2022/03/28 06:03:08;;;;;;;4.30;2.88;;;10.90;65.30;;;;;;5005532;28;20033;-77
2022/03/28 06:05:37;;;;;;;6.45;3.28;;;10.90;65.30;;;;;;5012685;28;20025;-78
2022/03/28 06:08:04;;;;;;;6.20;3.20;;;10.80;65.30;;;;;;5012656;28;20144;-77
2022/03/28 06:10:30;;;;;;;5.10;2.92;;;10.80;65.30;;;;;;4993135;28;20053;-78
2022/03/28 06:12:56;;;;;;;5.25;2.67;;;10.80;65.30;;;;;;4992970;28;20458;-78
2022/03/28 06:15:22;;;;;;;5.38;3.20;;;10.80;65.40;;;;;;5009823;28;20037;-78
2022/03/28 06:17:47;;;;;;;5.13;2.92;;;10.80;65.40;;;;;;4995762;28;20021;-78
2022/03/28 06:20:13;;;;;;;5.82;3.13;;;10.80;65.40;;;;;;4977483;28;20080;-78
2022/03/28 06:22:40;;;;;;;4.68;3.08;;;10.70;65.40;;;;;;5012800;28;20060;-78
2022/03/28 06:25:07;;;;;;;6.25;3.28;;;10.70;65.40;;;;;;5012496;28;20480;-78
2022/03/28 06:27:33;;;;;;;6.15;3.42;;;10.70;65.60;;;;;;5028065;28;20029;-78
2022/03/28 06:29:58;;;;;;;5.95;3.15;;;10.70;65.50;;;;;;5012554;28;20037;-79
2022/03/28 06:32:24;;;;;;;5.30;3.13;;;10.70;65.50;;;;;;5004206;28;20021;-78
2022/03/28 06:34:52;;;;;;;5.53;3.42;;;10.70;65.60;;;;;;4990349;28;20044;-78
2022/03/28 06:37:22;;;;;;;5.93;3.28;;;10.70;65.60;;;;;;5030169;28;20042;-76
2022/03/28 06:39:47;;;;;;;4.82;2.95;;;10.60;65.60;;;;;;4995287;28;20075;-78
2022/03/28 06:42:13;;;;;;;5.72;3.60;;;10.60;65.60;;;;;;5011979;28;20045;-78
2022/03/28 06:44:39;;;;;;;5.10;3.50;;;10.60;65.60;;;;;;5012258;28;20034;-79
2022/03/28 06:47:05;;;;;;;5.28;3.00;;;10.60;65.70;;;;;;5029949;28;20037;-75
2022/03/28 06:49:32;;;;;;;5.68;3.17;;;10.60;65.70;;;;;;4980080;28;20474;-78
2022/03/28 06:51:58;;;;;;;5.03;3.05;;;10.60;66.40;;;;;;4987035;28;20030;-79
2022/03/28 06:54:24;;;;;;;5.38;3.30;;;10.60;65.70;;;;;;4995757;28;20052;-78
2022/03/28 06:56:51;;;;;;;5.70;3.42;;;10.60;65.80;;;;;;5011774;28;20837;-78
2022/03/28 06:59:16;;;;;;;5.32;3.30;;;10.60;65.80;;;;;;4983920;28;20446;-78
2022/03/28 07:01:43;;;;;;;5.35;3.53;;;10.60;65.80;;;;;;5028170;28;20024;-78
2022/03/28 07:04:12;;;;;;;5.78;4.07;;;10.50;65.80;;;;;;5015328;28;20030;-78
2022/03/28 07:06:39;;;;;;;7.20;4.13;;;10.50;65.80;;;;;;4981944;28;20467;-78
2022/03/28 07:09:05;;;;;;;5.45;3.22;;;10.50;65.90;;;;;;5012490;28;20037;-78
2022/03/28 07:11:34;;;;;;;6.20;3.47;;;10.50;65.90;;;;;;5017522;28;20022;-78
2022/03/28 07:14:00;;;;;;;6.22;3.83;;;10.50;65.90;;;;;;4996335;28;20029;-78
2022/03/28 07:16:26;;;;;;;5.65;3.45;;;10.50;65.90;;;;;;5032391;28;20537;-78
2022/03/28 07:18:52;;;;;;;6.22;3.85;;;10.50;65.90;;;;;;5002163;28;20037;-78
2022/03/28 07:21:18;;;;;;;5.88;3.45;;;10.50;65.90;;;;;;5033902;28;20454;-78
2022/03/28 07:23:43;;;;;;;5.32;3.33;;;10.50;66.00;;;;;;5007613;28;20088;-78
2022/03/28 07:26:10;;;;;;;5.93;3.78;;;10.50;66.00;;;;;;5015159;28;20544;-79
2022/03/28 07:28:39;;;;;;;5.88;3.70;;;10.50;66.00;;;;;;5008896;28;20084;-78
2022/03/28 07:31:08;;;;;;;6.20;3.63;;;10.50;66.00;;;;;;4999850;28;20057;-78
2022/03/28 07:33:37;;;;;;;6.20;3.75;;;10.50;66.10;;;;;;4999386;28;20087;-79
2022/03/28 07:36:04;;;;;;;5.45;3.70;;;10.50;66.10;;;;;;5015917;28;20033;-79
2022/03/28 07:38:29;;;;;;;5.05;3.53;;;10.50;66.10;;;;;;4996252;28;20049;-79
2022/03/28 07:40:55;;;;;;;5.15;3.60;;;10.50;66.10;;;;;;4998896;28;20438;-79
2022/03/28 07:43:21;;;;;;;5.85;3.65;;;10.50;66.10;;;;;;4999687;28;20037;-78
2022/03/28 07:45:48;;;;;;;5.15;3.50;;;10.50;66.10;;;;;;4991370;28;20018;-79
2022/03/28 07:48:14;;;;;;;5.75;3.60;;;10.50;66.20;;;;;;4996197;28;20117;-79
2022/03/28 07:50:40;;;;;;;6.43;3.97;;;10.50;66.20;;;;;;4999124;28;20055;-79
2022/03/28 07:53:06;;;;;;;7.40;4.30;;;10.50;66.20;;;;;;4995704;28;20065;-79
2022/03/28 07:55:32;;;;;;;5.85;3.83;;;10.50;66.20;;;;;;4979620;28;20041;-79
2022/03/28 07:58:01;;;;;;;6.32;3.95;;;10.50;66.20;;;;;;5021720;28;20125;-80
2022/03/28 08:00:29;;;;;;;7.25;3.85;;;10.50;66.30;;;;;;4990820;28;20041;-80
2022/03/28 08:02:56;;;;;;;6.47;4.07;;;10.50;66.30;;;;;;4991422;28;20066;-80
2022/03/28 08:05:22;;;;;;;6.53;3.75;;;10.50;66.30;;;;;;5011067;28;20071;-79
2022/03/28 08:07:52;;;;;;;6.25;4.00;;;10.50;66.30;;;;;;4987894;28;20058;-79
2022/03/28 08:10:19;;;;;;;6.28;3.90;;;10.50;66.40;;;;;;5006065;28;20088;-80
2022/03/28 08:12:45;;;;;;;5.82;3.90;;;10.60;66.40;;;;;;5014117;28;20022;-79
2022/03/28 08:15:13;;;;;;;5.25;3.58;;;10.50;66.30;;;;;;4982306;28;20029;-77
2022/03/28 08:17:40;;;;;;;6.00;3.92;;;10.50;66.30;;;;;;4998071;28;20025;-81
2022/03/28 08:20:09;;;;;;;6.28;4.18;;;10.60;66.50;;;;;;5013468;28;20100;-78
2022/03/28 08:22:49;;;;;;;6.07;4.15;;;10.50;66.40;;;;;;4984491;28;20026;-77
2022/03/28 08:25:18;;;;;;;6.43;4.20;;;10.60;66.50;;;;;;5032065;28;20037;-78
2022/03/28 08:27:44;;;;;;;6.30;4.03;;;10.60;66.40;;;;;;5005147;28;20028;-78
2022/03/28 08:30:12;;;;;;;6.88;4.68;;;10.50;66.40;;;;;;5027934;28;20025;-78
2022/03/28 08:32:40;;;;;;;8.25;4.80;;;10.60;66.50;;;;;;5012757;28;20695;-78
2022/03/28 08:35:07;;;;;;;7.35;4.43;;;10.60;66.50;;;;;;4998068;28;20017;-78
2022/03/28 08:37:33;;;;;;;6.90;4.80;;;10.60;66.50;;;;;;5015316;28;20026;-78
2022/03/28 08:39:59;;;;;;;7.15;4.90;;;10.60;66.50;;;;;;5003172;28;20741;-78
2022/03/28 08:42:26;;;;;;;6.55;4.00;;;10.60;66.50;;;;;;5025988;28;20034;-77
2022/03/28 08:44:52;;;;;;;6.28;4.28;;;10.60;66.60;;;;;;5005142;28;20088;-77
2022/03/28 08:47:20;;;;;;;7.07;4.80;;;10.60;66.50;;;;;;4999636;28;20128;-78
2022/03/28 08:49:53;;;;;;;6.85;4.38;;;10.60;66.60;;;;;;5020255;28;20091;-79
2022/03/28 08:52:20;;;;;;;6.60;4.60;;;10.60;66.60;;;;;;5014384;28;20325;-80
2022/03/28 08:54:46;;;;;;;6.45;4.32;;;10.70;66.70;;;;;;4984072;28;20070;-81
2022/03/28 08:57:13;;;;;;;6.80;4.60;;;10.70;66.70;;;;;;4993722;28;20046;-78
2022/03/28 08:59:39;;;;;;;7.00;4.50;;;10.70;66.70;;;;;;4991275;28;20046;-81
2022/03/28 09:02:05;;;;;;;6.60;4.15;;;10.70;66.70;;;;;;4974112;28;20526;-80
2022/03/28 09:04:35;;;;;;;5.85;3.92;;;10.80;66.70;;;;;;4968454;28;20034;-81
2022/03/28 09:07:01;;;;;;;7.38;4.63;;;10.80;66.80;;;;;;4990206;28;20045;-80
2022/03/28 09:09:29;;;;;;;6.82;4.75;;;10.80;66.80;;;;;;4973532;28;20034;-79
2022/03/28 09:12:05;;;;;;;7.43;4.22;;;10.90;66.80;;;;;;4970563;28;20070;-78
2022/03/28 09:14:32;;;;;;;7.47;4.60;;;10.90;66.80;;;;;;4985867;28;20170;-84
2022/03/28 09:16:59;;;;;;;6.82;4.43;;;11.00;66.80;;;;;;4990849;28;20023;-81
2022/03/28 09:19:25;;;;;;;7.85;4.85;;;11.00;66.70;;;;;;4991028;28;20041;-82
2022/03/28 09:21:50;;;;;;;6.95;4.53;;;11.00;66.70;;;;;;4974715;28;20126;-78
2022/03/28 09:24:16;;;;;;;6.35;4.53;;;11.10;66.80;;;;;;4989443;28;20061;-78
2022/03/28 09:26:42;;;;;;;6.90;4.82;;;11.10;66.70;;;;;;4970093;28;20113;-78
2022/03/28 09:29:08;;;;;;;7.15;5.00;;;11.20;66.70;;;;;;4970891;28;20023;-77
2022/03/28 09:31:39;;;;;;;6.95;4.78;;;11.20;66.70;;;;;;4972594;28;20113;-76
2022/03/28 09:34:09;;;;;;;7.32;5.05;;;11.30;66.70;;;;;;4987758;28;20462;-78
2022/03/28 09:36:51;;;;;;;8.05;4.97;;;11.40;66.70;;;;;;4990140;28;20034;-78
2022/03/28 09:39:27;;;;;;;7.32;4.53;;;11.40;66.70;;;;;;4988164;28;20072;-77
2022/03/28 09:42:05;;;;;;;7.43;4.90;;;11.50;66.60;;;;;;4989882;28;20038;-78
2022/03/28 09:44:47;;;;;;;6.97;4.72;;;11.50;66.70;;;;;;4972206;28;20034;-78
2022/03/28 09:47:17;;;;;;;7.25;4.80;;;11.60;66.70;;;;;;4983461;28;20537;-77
2022/03/28 09:49:44;;;;;;;6.97;4.65;;;11.70;66.60;;;;;;4989678;28;20448;-78
2022/03/28 09:52:14;;;;;;;7.20;4.72;;;11.80;66.60;;;;;;4990905;28;20098;-77
2022/03/28 09:54:50;;;;;;;6.85;4.80;;;11.80;66.50;;;;;;4997761;28;20475;-77
2022/03/28 09:57:21;;;;;;;7.03;4.57;;;11.90;66.50;;;;;;5005812;28;20041;-78
2022/03/28 09:59:47;;;;;;;7.97;5.32;;;12.00;66.50;;;;;;5006377;28;20152;-80
2022/03/28 10:02:14;;;;;;;7.63;5.00;;;12.00;66.40;;;;;;5010295;28;20506;-79
2022/03/28 10:04:42;;;;;;;7.28;4.65;;;12.10;66.40;;;;;;5010161;28;20030;-80
2022/03/28 10:07:08;;;;;;;7.60;5.20;;;12.20;66.30;;;;;;4986220;28;20125;-80
2022/03/28 10:09:36;;;;;;;7.68;5.05;;;12.30;66.30;;;;;;4976968;28;20022;-79
2022/03/28 10:12:03;;;;;;;7.53;4.80;;;12.30;66.20;;;;;;5008775;28;20022;-81
2022/03/28 10:14:31;;;;;;;8.35;5.20;;;12.40;66.20;;;;;;4989071;28;20045;-80
2022/03/28 10:16:57;;;;;;;7.47;4.75;;;12.50;66.20;;;;;;4988079;28;20123;-81
2022/03/28 10:19:23;;;;;;;6.10;4.30;;;12.60;66.20;;;;;;4992909;28;20495;-81
2022/03/28 10:21:50;;;;;;;7.57;5.05;;;12.70;66.20;;;;;;4992768;28;20022;-83
2022/03/28 10:24:22;;;;;;;6.65;4.57;;;12.70;66.10;;;;;;5009756;28;20112;-80
2022/03/28 10:26:53;;;;;;;6.75;4.95;;;12.80;66.10;;;;;;4998706;28;20030;-80
2022/03/28 10:29:22;;;;;;;8.00;4.78;;;12.90;66.10;;;;;;5002955;28;20479;-80
2022/03/28 10:31:55;;;;;;;8.70;5.20;;;13.00;66.10;;;;;;5001180;28;20029;-80
2022/03/28 10:34:40;;;;;;;6.70;4.45;;;13.10;66.10;;;;;;5009291;28;20036;-80
2022/03/28 10:37:24;;;;;;;;;;;13.20;66.10;;;;;;5001976;28;20038;-80
2022/03/28 10:39:50;;;;;;;6.85;3.95;;;13.20;65.80;;;;;;4996314;28;19913;-81
2022/03/28 10:42:24;;;;;;;7.72;4.28;;;13.30;65.80;;;;;;5004665;28;20029;-80
2022/03/28 10:45:03;;;;;;;6.78;4.55;;;13.40;66.10;;;;;;5013954;28;20184;-80
2022/03/28 10:47:41;;;;;;;7.10;4.63;;;13.50;66.20;;;;;;5012214;28;20033;-81
2022/03/28 10:50:12;;;;;;;7.40;4.82;;;13.60;66.20;;;;;;5012785;28;20029;-80
2022/03/28 10:52:38;;;;;;;8.90;4.97;;;13.70;66.20;;;;;;5012831;28;20073;-80
2022/03/28 10:55:08;;;;;;;7.07;4.55;;;13.80;66.20;;;;;;4969637;28;20061;-80
2022/03/28 10:57:35;;;;;;;6.72;4.32;;;13.90;66.20;;;;;;4989893;28;20042;-80
2022/03/28 11:00:08;;;;;;;7.10;4.25;;;14.00;66.10;;;;;;4990696;28;20030;-80
2022/03/28 11:02:34;;;;;;;6.57;4.45;;;14.10;66.20;;;;;;4992935;28;20030;-82
2022/03/28 11:05:14;;;;;;;7.63;4.35;;;14.20;66.20;;;;;;4976394;28;20030;-78
2022/03/28 11:07:39;;;;;;;7.55;5.13;;;14.20;66.40;;;;;;4989519;28;20232;-76
2022/03/28 11:10:10;;;;;;;6.80;4.57;;;14.30;66.20;;;;;;4990857;28;20534;-78
2022/03/28 11:12:42;;;;;;;5.90;4.05;;;14.40;66.20;;;;;;4992984;28;20732;-79
2022/03/28 11:15:20;;;;;;;7.10;4.90;;;14.50;66.30;;;;;;4989184;28;20019;-80
2022/03/28 11:17:51;;;;;;;6.60;4.85;;;14.60;66.30;;;;;;4999613;28;20042;-78
2022/03/28 11:20:22;;;;;;;6.43;4.45;;;14.70;66.30;;;;;;4991945;28;20030;-78
2022/03/28 11:22:49;;;;;;;7.05;4.75;;;14.80;66.40;;;;;;4984786;28;20033;-74
2022/03/28 11:25:36;;;;;;;6.40;4.40;;;14.90;66.50;;;;;;4999325;28;20104;-76
2022/03/28 11:28:14;;;;;;;6.82;4.60;;;15.00;66.70;;;;;;4987243;28;20530;-79
2022/03/28 11:30:46;;;;;;;6.90;4.60;;;15.10;66.50;;;;;;4984691;28;20134;-78
2022/03/28 11:33:17;;;;;;;6.65;4.47;;;15.20;66.60;;;;;;4992421;28;20121;-78
2022/03/28 11:35:53;;;;;;;6.53;4.63;;;15.30;66.60;;;;;;4993017;28;20100;-79
2022/03/28 11:38:21;;;;;;;6.38;4.38;;;15.30;66.60;;;;;;4992160;28;20031;-79
2022/03/28 11:40:47;;;;;;;6.22;4.15;;;15.40;66.50;;;;;;4975851;28;20092;-78
2022/03/28 11:43:13;;;;;;;7.03;4.57;;;15.50;66.50;;;;;;4991818;28;20062;-79
2022/03/28 11:45:47;;;;;;;6.90;4.60;;;15.50;66.50;;;;;;4959977;28;20061;-81
2022/03/28 11:48:19;;;;;;;7.30;5.20;;;15.60;66.50;;;;;;4975035;28;20026;-78
2022/03/28 11:50:46;;;;;;;6.20;4.43;;;15.70;66.50;;;;;;4990900;28;20081;-78
2022/03/28 11:53:17;;;;;;;6.30;4.70;;;15.80;66.50;;;;;;4975138;28;20122;-76
2022/03/28 11:55:53;;;;;;;6.72;4.50;;;15.80;66.50;;;;;;4973354;28;20069;-77
2022/03/28 11:58:30;;;;;;;6.03;4.38;;;15.90;66.50;;;;;;4974050;28;20038;-79
2022/03/28 12:01:09;;;;;;;6.97;4.40;;;16.00;66.60;;;;;;4990974;28;20037;-78
2022/03/28 12:03:37;;;;;;;6.75;4.72;;;16.00;66.70;;;;;;4972936;28;20495;-79
2022/03/28 12:06:03;;;;;;;6.93;4.80;;;16.10;66.80;;;;;;4983449;28;20069;-79
2022/03/28 12:08:29;;;;;;;7.55;4.82;;;16.10;66.80;;;;;;4973141;28;20078;-78
2022/03/28 12:10:55;;;;;;;8.02;5.22;;;16.20;66.90;;;;;;4957212;28;20043;-75
2022/03/28 12:13:23;;;;;;;7.63;4.72;;;16.20;67.00;;;;;;4992091;28;20069;-76
2022/03/28 12:15:52;;;;;;;7.00;4.72;;;16.30;66.90;;;;;;4983352;28;20030;-78
2022/03/28 12:18:22;;;;;;;7.22;4.95;;;16.30;66.80;;;;;;4986466;28;20030;-76
2022/03/28 12:20:53;;;;;;;6.80;4.70;;;16.40;66.90;;;;;;4995443;28;20031;-78
2022/03/28 12:23:22;;;;;;;6.85;4.65;;;16.50;67.10;;;;;;4976471;28;20050;-77
2022/03/28 12:25:50;;;;;;;6.85;4.43;;;16.50;67.10;;;;;;4994190;28;20412;-77
2022/03/28 12:28:33;;;;;;;6.55;4.63;;;16.50;67.20;;;;;;4995472;28;20026;-78
2022/03/28 12:31:02;;;;;;;7.15;4.97;;;16.60;67.30;;;;;;4972282;28;20633;-76
2022/03/28 12:33:30;;;;;;;7.05;5.30;;;16.60;67.30;;;;;;4980389;28;20030;-77
2022/03/28 12:36:00;;;;;;;6.53;4.70;;;16.70;67.30;;;;;;4995860;28;20031;-77
2022/03/28 12:38:31;;;;;;;7.38;4.80;;;16.70;67.30;;;;;;4989388;28;20104;-77
2022/03/28 12:41:01;;;;;;;7.47;4.97;;;16.80;67.30;;;;;;4982858;28;20077;-78
2022/03/28 12:43:28;;;;;;;7.20;4.97;;;16.80;67.10;;;;;;4996217;28;20030;-76
2022/03/28 12:45:58;;;;;;;7.78;5.10;;;16.80;67.10;;;;;;4990676;28;20116;-77
2022/03/28 12:48:49;;;;;;;7.55;5.10;;;16.90;67.20;;;;;;4988032;28;20031;-77
2022/03/28 12:51:30;;;;;;;6.43;4.88;;;16.90;67.30;;;;;;4973655;28;20074;-77
2022/03/28 12:54:14;;;;;;;6.25;4.65;;;17.00;67.20;;;;;;4977125;28;20061;-78